Time;durP1;ratioP1;P1;durP2;ratioP2;P2;SDS_P1;SDS_P2;PMS_P1;PMS_P2;Temp;Humidity;BMP_temperature;BMP_pressure;BME280_temperature;BME280_humidity;BME280_pressure;Samples;Min_cycle;Max_cycle;Signal;HPM_P1;HPM_P2
2022/04/21 00:04:24;;;;;;;58.63;33.15;;;;;;;4.69;78.23;98629.19;4057917;86;22069;-85
2022/04/21 00:10:27;;;;;;;60.12;34.25;;;;;;;4.70;78.05;98637.53;4072048;86;21552;-85
2022/04/21 00:16:28;;;;;;;52.85;31.65;;;;;;;4.69;78.22;98631.09;4066246;86;21059;-85
2022/04/21 00:28:49;;;;;;;60.50;34.00;;;;;;;4.65;78.24;98641.84;4069661;86;21042;-85
2022/04/21 00:34:50;;;;;;;56.98;33.00;;;;;;;4.64;78.35;98640.83;4070607;84;21703;-85
2022/04/21 00:40:52;;;;;;;56.80;33.23;;;;;;;4.68;78.36;98642.50;4075097;84;21095;-86
2022/04/21 00:46:55;;;;;;;56.90;33.88;;;;;;;4.68;78.46;98647.92;4075542;86;21062;-86
2022/04/21 00:52:58;;;;;;;59.67;33.65;;;;;;;4.62;78.41;98651.22;4077380;85;21126;-86
2022/04/21 00:59:01;;;;;;;58.20;32.88;;;;;;;4.54;78.61;98657.00;4070148;85;21031;-85
2022/04/21 01:05:04;;;;;;;59.98;35.00;;;;;;;4.56;78.69;98659.37;4060978;85;21572;-85
2022/04/21 01:11:06;;;;;;;62.23;35.70;;;;;;;4.56;78.65;98647.97;4078403;85;21140;-85
2022/04/21 01:17:12;;;;;;;58.40;34.90;;;;;;;4.41;78.50;98655.48;4069537;86;21974;-85
2022/04/21 01:23:15;;;;;;;57.45;33.90;;;;;;;4.34;79.26;98659.32;4079313;84;21091;-86
2022/04/21 01:29:17;;;;;;;59.00;34.58;;;;;;;4.38;79.08;98662.14;4076582;86;21575;-86
2022/04/21 01:35:18;;;;;;;56.68;32.83;;;;;;;4.33;79.49;98665.88;4084492;83;21084;-86
2022/04/21 01:41:19;;;;;;;59.48;33.70;;;;;;;4.34;79.50;98662.03;4181956;84;21583;-86
2022/04/21 01:47:21;;;;;;;51.57;31.43;;;;;;;4.38;79.70;98660.78;4237623;82;21044;-86
2022/04/21 01:53:22;;;;;;;56.13;33.05;;;;;;;4.40;79.61;98651.17;4245706;82;21109;-85
2022/04/21 01:59:24;;;;;;;55.60;33.75;;;;;;;4.40;79.40;98658.53;4238504;81;21521;-86
2022/04/21 02:05:28;;;;;;;61.50;34.35;;;;;;;4.36;79.87;98650.29;4280909;82;21013;-86
2022/04/21 02:11:30;;;;;;;59.08;33.65;;;;;;;4.34;79.86;98640.34;4242651;82;21008;-86
2022/04/21 02:17:33;;;;;;;64.37;33.88;;;;;;;4.32;80.11;98632.35;4234438;82;21010;-86
2022/04/21 02:23:34;;;;;;;57.98;33.10;;;;;;;4.30;80.22;98640.02;4237731;82;21061;-86
2022/04/21 02:36:00;;;;;;;59.35;33.35;;;;;;;4.31;80.07;98645.10;4182431;84;21071;-86
2022/04/21 02:42:02;;;;;;;55.58;31.20;;;;;;;4.30;80.33;98638.11;4082761;84;21759;-86
2022/04/21 02:48:04;;;;;;;52.23;29.42;;;;;;;4.29;80.06;98643.87;4068568;85;21075;-86
2022/04/21 03:00:30;;;;;;;52.10;29.65;;;;;;;4.25;80.72;98651.09;4073226;85;21555;-86
2022/04/21 03:06:44;;;;;;;59.55;31.70;;;;;;;4.22;80.67;98621.42;4079071;86;21086;-85
2022/04/21 03:12:46;;;;;;;48.95;29.27;;;;;;;4.19;80.53;98634.30;3985958;86;56214;-85
2022/04/21 03:18:47;;;;;;;49.88;29.12;;;;;;;4.16;80.67;98631.47;3973148;88;21131;-85
2022/04/21 03:24:49;;;;;;;52.27;30.97;;;;;;;4.15;80.66;98626.61;3969576;87;21068;-86
2022/04/21 03:30:52;;;;;;;51.18;29.90;;;;;;;4.12;80.52;98611.04;3964329;87;21100;-86
2022/04/21 03:36:53;;;;;;;53.95;29.48;;;;;;;4.12;80.81;98615.69;4022938;87;21037;-83
2022/04/21 03:42:55;;;;;;;52.13;30.90;;;;;;;4.14;80.75;98607.98;3968907;88;21074;-86
2022/04/21 03:48:56;;;;;;;51.63;30.68;;;;;;;4.19;80.64;98621.30;4068435;86;21584;-86
2022/04/21 03:54:57;;;;;;;58.33;32.00;;;;;;;4.18;80.63;98629.98;4017931;87;21143;-86
2022/04/21 04:00:59;;;;;;;57.38;32.67;;;;;;;4.19;80.66;98623.45;4016345;87;21043;-85
2022/04/21 04:13:24;;;;;;;52.93;30.60;;;;;;;4.17;80.76;98637.10;4024526;86;21520;-85
2022/04/21 04:19:26;;;;;;;52.43;30.88;;;;;;;4.20;80.84;98631.00;4017836;87;21115;-86
2022/04/21 04:25:28;;;;;;;48.60;29.40;;;;;;;4.22;81.14;98634.97;4026952;86;21060;-85
2022/04/21 04:31:30;;;;;;;47.85;28.42;;;;;;;4.30;81.11;98633.25;4012467;87;21068;-85
2022/04/21 04:37:31;;;;;;;55.50;34.05;;;;;;;4.35;81.00;98644.63;4016957;87;21125;-85
2022/04/21 04:43:33;;;;;;;53.63;33.18;;;;;;;4.38;80.87;98640.46;4021663;87;21853;-85
2022/04/21 04:49:34;;;;;;;52.98;31.90;;;;;;;4.43;81.08;98638.88;4020013;86;21466;-85
2022/04/21 04:55:36;;;;;;;52.88;31.52;;;;;;;4.51;81.00;98642.02;4021744;86;21556;-85
2022/04/21 05:01:45;;;;;;;50.50;31.25;;;;;;;4.59;81.03;98635.64;4025409;87;21076;-85
2022/04/21 05:07:47;;;;;;;49.80;30.95;;;;;;;4.68;80.98;98638.44;4028135;87;21686;-86
2022/04/21 05:13:48;;;;;;;49.67;30.48;;;;;;;4.77;80.61;98638.30;4046702;87;21575;-86
2022/04/21 05:19:52;;;;;;;51.30;30.43;;;;;;;4.91;80.54;98639.25;4024575;86;22372;-86
2022/04/21 05:26:08;;;;;;;47.05;28.23;;;;;;;5.06;80.39;98642.00;4024770;86;21089;-86
2022/04/21 05:32:13;;;;;;;48.65;28.10;;;;;;;5.19;80.07;98639.45;4022589;86;21013;-86
2022/04/21 05:38:23;;;;;;;41.92;26.12;;;;;;;5.35;79.99;98638.91;4017679;86;21084;-85
2022/04/21 05:44:26;;;;;;;48.52;29.23;;;;;;;5.44;79.72;98638.73;4020549;87;21058;-86
2022/04/21 05:50:27;;;;;;;48.55;29.18;;;;;;;5.53;79.64;98632.58;4021304;87;21080;-85
2022/04/21 05:56:29;;;;;;;49.80;28.80;;;;;;;5.54;79.75;98640.38;4023156;87;21096;-85
2022/04/21 06:02:32;;;;;;;43.60;26.37;;;;;;;5.79;79.78;98644.48;4022749;87;21070;-85
2022/04/21 06:08:34;;;;;;;48.28;28.12;;;;;;;5.98;79.47;98643.20;4022285;86;21068;-86
2022/04/21 06:14:38;;;;;;;56.28;28.47;;;;;;;6.21;79.40;98639.27;4026321;86;21487;-85
2022/04/21 06:20:40;;;;;;;51.42;29.50;;;;;;;6.49;79.13;98643.97;4084278;87;21007;-85
2022/04/21 06:26:42;;;;;;;47.62;29.23;;;;;;;6.76;78.91;98648.44;4017768;87;21372;-85
2022/04/21 06:32:43;;;;;;;42.43;27.62;;;;;;;6.88;78.90;98646.92;4019161;87;21594;-86
2022/04/21 06:38:45;;;;;;;50.50;31.82;;;;;;;7.17;78.55;98640.09;4031200;86;21743;-85
2022/04/21 06:51:08;;;;;;;38.28;25.57;;;;;;;7.58;77.77;98634.61;4061004;86;21547;-85
2022/04/21 06:57:10;;;;;;;38.80;25.30;;;;;;;7.78;77.42;98627.94;4091438;84;21058;-84
2022/04/21 07:03:12;;;;;;;43.38;28.98;;;;;;;8.00;77.29;98636.66;4064708;85;21662;-85
2022/04/21 07:09:13;;;;;;;33.42;24.40;;;;;;;8.02;76.83;98630.07;4067690;86;21095;-85
2022/04/21 07:15:15;;;;;;;34.48;22.93;;;;;;;8.31;76.81;98650.59;4065052;86;21015;-86
2022/04/21 07:21:16;;;;;;;29.57;19.50;;;;;;;8.51;76.49;98650.69;4078216;85;21584;-85
2022/04/21 07:27:17;;;;;;;33.55;20.32;;;;;;;8.83;75.89;98653.83;4069421;86;22129;-85
2022/04/21 07:33:19;;;;;;;32.10;21.07;;;;;;;9.04;75.20;98657.59;4007064;87;21573;-85
2022/04/21 07:39:20;;;;;;;36.03;22.93;;;;;;;9.17;75.72;98664.95;4098263;86;21021;-85
2022/04/21 07:45:22;;;;;;;28.07;19.37;;;;;;;9.36;75.26;98666.91;4017486;87;21561;-85
2022/04/21 07:51:24;;;;;;;22.15;16.07;;;;;;;9.60;74.95;98666.96;4023936;87;21104;-85
2022/04/21 07:57:47;;;;;;;24.85;18.20;;;;;;;9.84;74.13;98665.62;4025101;87;21001;-85
2022/04/21 08:03:49;;;;;;;25.35;17.60;;;;;;;10.02;73.83;98672.03;4032463;87;21051;-85
2022/04/21 08:09:51;;;;;;;24.18;17.82;;;;;;;10.19;73.15;98661.27;4087982;87;21036;-85
2022/04/21 08:15:53;;;;;;;20.45;14.18;;;;;;;10.48;73.02;98667.12;4022424;86;21603;-85
2022/04/21 08:21:54;;;;;;;17.17;12.98;;;;;;;10.97;71.85;98662.48;4027828;87;21127;-87
2022/04/21 08:34:24;;;;;;;21.75;14.20;;;;;;;11.56;70.10;98665.98;3997173;87;21756;-86
2022/04/21 08:40:27;;;;;;;20.40;14.87;;;;;;;11.83;69.62;98661.75;4041689;85;21146;-86
2022/04/21 08:46:32;;;;;;;22.02;14.10;;;;;;;12.10;67.42;98650.59;4053260;86;21045;-85
2022/04/21 08:52:34;;;;;;;17.50;13.50;;;;;;;12.30;66.76;98649.00;4034158;86;21083;-86
2022/04/21 08:58:39;;;;;;;18.48;12.30;;;;;;;12.73;63.58;98644.79;4051823;85;21576;-86
2022/04/21 09:04:43;;;;;;;18.82;13.70;;;;;;;13.17;63.07;98640.92;4060633;86;21164;-85
2022/04/21 09:10:45;;;;;;;19.92;15.58;;;;;;;13.34;62.40;98632.56;4098391;85;21005;-85
2022/04/21 09:16:48;;;;;;;28.00;16.05;;;;;;;13.63;60.88;98640.05;4081365;86;21538;-85
2022/04/21 09:22:59;;;;;;;18.62;16.10;;;;;;;14.01;59.51;98632.89;4088963;86;21031;-86
2022/04/21 09:29:02;;;;;;;23.35;16.80;;;;;;;14.34;59.95;98621.02;4051253;86;21064;-86
2022/04/21 09:35:05;;;;;;;26.80;18.62;;;;;;;14.52;58.47;98627.91;4037462;86;21092;-86
2022/04/21 09:41:14;;;;;;;23.90;17.52;;;;;;;14.52;57.81;98621.63;4018455;86;21106;-86
2022/04/21 09:47:23;;;;;;;20.55;16.37;;;;;;;14.27;56.93;98622.47;4078268;87;20996;-86
2022/04/21 09:53:25;;;;;;;21.70;16.32;;;;;;;14.65;56.61;98617.14;4003076;87;21770;-86
2022/04/21 09:59:27;;;;;;;17.37;13.15;;;;;;;14.30;54.46;98616.15;4026370;87;21047;-85
2022/04/21 10:05:32;;;;;;;20.02;14.30;;;;;;;14.56;54.51;98619.61;4019148;87;21136;-85
2022/04/21 10:11:33;;;;;;;21.50;14.30;;;;;;;14.78;54.86;98613.46;4022021;86;21144;-85
2022/04/21 10:17:35;;;;;;;16.95;11.60;;;;;;;15.12;52.13;98604.56;4021961;87;21143;-86
2022/04/21 10:23:43;;;;;;;16.27;13.13;;;;;;;15.68;51.83;98596.88;4023671;87;21064;-86
2022/04/21 10:29:52;;;;;;;16.57;10.63;;;;;;;16.15;50.63;98603.78;4020810;87;21080;-86
2022/04/21 10:35:57;;;;;;;18.05;10.85;;;;;;;17.10;50.06;98596.63;4030011;87;21035;-86
2022/04/21 10:42:29;;;;;;;11.22;9.48;;;;;;;16.98;48.72;98588.98;3994180;87;21548;-85
2022/04/21 10:48:43;;;;;;;13.38;9.38;;;;;;;17.56;42.60;98594.85;3990197;86;21064;-85
2022/04/21 11:01:29;;;;;;;14.05;8.35;;;;;;;18.23;47.60;98586.45;3980979;87;21506;-85
2022/04/21 11:07:35;;;;;;;8.93;7.45;;;;;;;18.83;46.27;98572.97;3987753;87;21417;-85
2022/04/21 11:13:52;;;;;;;8.98;6.87;;;;;;;18.06;45.48;98587.69;3979455;87;21571;-86
2022/04/21 11:19:54;;;;;;;11.57;7.47;;;;;;;17.00;46.46;98588.56;3985565;87;21193;-86
2022/04/21 11:26:08;;;;;;;7.62;6.47;;;;;;;16.75;45.47;98584.14;3983638;87;21253;-85
2022/04/21 11:32:16;;;;;;;10.18;5.92;;;;;;;16.29;46.01;98585.58;3980756;87;21122;-82
2022/04/21 11:38:17;;;;;;;9.73;5.70;;;;;;;16.17;45.82;98571.02;3984176;86;21001;-84
2022/04/21 11:44:23;;;;;;;8.93;5.70;;;;;;;15.72;44.90;98567.06;4024499;86;21095;-83
2022/04/21 11:50:29;;;;;;;6.95;5.47;;;;;;;15.59;45.55;98568.25;4056183;85;21120;-85
2022/04/21 11:56:30;;;;;;;8.77;6.63;;;;;;;15.64;45.62;98565.78;4017402;87;20985;-85
2022/04/21 12:08:52;;;;;;;9.60;7.58;;;;;;;15.58;45.56;98558.42;4023230;87;21120;-85
2022/04/21 12:14:54;;;;;;;9.85;6.58;;;;;;;15.64;45.35;98567.16;4065184;86;21082;-85
2022/04/21 12:20:55;;;;;;;8.20;5.78;;;;;;;15.39;44.97;98565.38;4022601;87;21639;-86
2022/04/21 12:26:58;;;;;;;11.73;7.67;;;;;;;15.18;45.37;98553.27;4065220;87;21539;-85
2022/04/21 12:32:59;;;;;;;10.88;6.97;;;;;;;15.04;45.12;98548.55;4020050;87;21054;-85
2022/04/21 12:39:03;;;;;;;9.45;5.67;;;;;;;14.85;44.88;98547.81;4042873;86;21499;-84
2022/04/21 12:45:06;;;;;;;8.78;5.87;;;;;;;14.56;45.26;98551.54;4061201;86;21099;-85
2022/04/21 12:51:22;;;;;;;8.28;6.00;;;;;;;14.64;45.19;98547.52;4084827;86;21614;-84
2022/04/21 12:58:10;;;;;;;14.98;7.30;;;;;;;14.55;45.35;98547.82;4078856;86;21015;-84
2022/04/21 13:04:16;;;;;;;14.55;10.43;;;;;;;14.48;45.34;98550.05;4008139;87;21079;-84
2022/04/21 13:10:21;;;;;;;10.25;7.55;;;;;;;14.53;45.11;98554.33;4076889;86;21011;-84
2022/04/21 13:16:21;;;;;;;11.38;7.92;;;;;;;14.36;45.31;98553.94;4067619;86;21474;-83
2022/04/21 13:22:22;;;;;;;13.25;8.55;;;;;;;14.09;45.43;98559.30;4061964;86;21014;-83
2022/04/21 13:28:23;;;;;;;13.45;8.93;;;;;;;14.01;45.33;98560.55;4060085;85;21080;-84
2022/04/21 13:34:26;;;;;;;19.15;9.60;;;;;;;13.86;45.58;98566.77;4023139;85;21086;-84
2022/04/21 13:40:33;;;;;;;12.10;8.00;;;;;;;13.80;45.56;98573.11;4059531;85;21031;-85
2022/04/21 13:46:35;;;;;;;13.38;8.53;;;;;;;13.64;45.48;98568.75;3981983;87;21011;-84
2022/04/21 13:52:39;;;;;;;14.38;8.35;;;;;;;13.36;45.70;98578.58;3998317;87;21022;-84
2022/04/21 13:58:40;;;;;;;10.55;8.18;;;;;;;13.26;45.79;98575.29;3977964;88;21051;-84
2022/04/21 14:04:43;;;;;;;14.43;9.45;;;;;;;13.27;45.99;98583.13;3997604;87;20987;-84
2022/04/21 14:10:44;;;;;;;17.48;12.13;;;;;;;13.26;46.31;98583.54;3985427;87;21015;-84
2022/04/21 14:16:45;;;;;;;17.45;11.93;;;;;;;13.15;46.54;98584.19;3984787;87;21874;-84
2022/04/21 14:22:46;;;;;;;22.62;12.82;;;;;;;12.88;46.89;98590.77;3985180;87;21607;-83
2022/04/21 14:28:48;;;;;;;15.20;11.22;;;;;;;12.80;47.26;98583.74;3987859;87;21012;-84
2022/04/21 14:35:04;;;;;;;18.32;12.47;;;;;;;12.72;47.55;98585.56;4015871;87;21000;-84
2022/04/21 14:47:24;;;;;;;67.12;28.52;;;;;;;12.52;47.91;98582.48;4110778;86;21594;-84
2022/04/21 14:53:26;;;;;;;66.95;25.20;;;;;;;12.50;48.34;98586.20;4057206;86;21614;-84
2022/04/21 14:59:27;;;;;;;19.70;12.50;;;;;;;12.42;48.44;98579.16;4048253;86;21047;-84
2022/04/21 15:05:28;;;;;;;18.60;13.80;;;;;;;12.26;48.56;98584.33;4037715;86;21536;-84
2022/04/21 15:11:36;;;;;;;19.55;12.45;;;;;;;12.17;48.93;98581.98;4056709;86;21478;-84
2022/04/21 15:17:38;;;;;;;17.65;12.43;;;;;;;11.98;49.37;98576.14;4026417;85;21041;-84
2022/04/21 15:23:39;;;;;;;25.70;14.63;;;;;;;11.85;49.61;98587.31;4053164;86;21521;-84
2022/04/21 15:29:40;;;;;;;24.18;14.07;;;;;;;11.76;50.02;98580.08;4046878;85;21035;-83
2022/04/21 15:35:44;;;;;;;31.57;17.37;;;;;;;11.69;50.98;98578.69;4036447;86;21011;-84
2022/04/21 15:41:45;;;;;;;28.27;15.30;;;;;;;11.54;51.17;98583.34;4046045;86;21064;-84
2022/04/21 15:47:47;;;;;;;19.32;12.23;;;;;;;11.42;52.04;98587.05;4065892;85;21043;-83
2022/04/21 16:00:09;;;;;;;54.35;23.47;;;;;;;11.09;53.14;98595.81;4048762;86;21114;-83
2022/04/21 16:06:15;;;;;;;23.87;14.60;;;;;;;10.92;52.80;98604.77;4067470;86;21614;-84
2022/04/21 16:12:17;;;;;;;21.85;13.75;;;;;;;10.80;53.28;98603.75;4032106;86;78375;-88
2022/04/21 16:18:19;;;;;;;23.32;14.43;;;;;;;10.68;54.26;98609.55;4023811;86;21148;-90
2022/04/21 16:24:21;;;;;;;22.20;14.95;;;;;;;10.56;54.24;98609.89;4031852;86;22157;-89
2022/04/21 16:30:23;;;;;;;22.45;14.73;;;;;;;10.43;54.93;98607.27;4027290;86;21088;-87
2022/04/21 16:36:24;;;;;;;21.02;14.07;;;;;;;10.33;55.35;98610.75;4026753;86;21075;-90
2022/04/21 16:42:25;;;;;;;22.20;14.18;;;;;;;10.18;56.21;98606.94;4047059;86;21526;-90
2022/04/21 16:48:27;;;;;;;24.07;15.20;;;;;;;10.05;56.82;98606.44;4037431;86;21083;-90
2022/04/21 16:54:28;;;;;;;24.90;17.77;;;;;;;9.94;57.40;98609.67;4019951;86;21977;-90
2022/04/21 17:06:50;;;;;;;30.95;19.50;;;;;;;9.83;58.79;98612.11;4032015;86;21067;-89
2022/04/21 17:12:51;;;;;;;28.60;18.15;;;;;;;9.76;59.29;98613.41;4033482;86;22172;-90
2022/04/21 17:18:53;;;;;;;38.88;23.27;;;;;;;9.69;59.98;98618.27;4027787;86;21580;-91
2022/04/21 17:24:54;;;;;;;33.15;20.40;;;;;;;9.62;60.21;98614.66;4033806;86;21087;-89
2022/04/21 17:30:56;;;;;;;33.48;21.00;;;;;;;9.50;60.75;98621.20;4040453;86;21193;-90
2022/04/21 17:36:57;;;;;;;40.92;27.87;;;;;;;9.43;61.09;98628.75;4044162;86;22302;-90
2022/04/21 17:42:59;;;;;;;54.55;35.28;;;;;;;9.35;61.53;98634.51;4035370;86;21151;-90
2022/04/21 17:49:01;;;;;;;93.10;59.48;;;;;;;9.30;62.26;98630.17;4036594;86;21124;-90
2022/04/21 17:55:03;;;;;;;43.52;28.12;;;;;;;9.25;62.81;98631.11;4016844;86;22578;-87
2022/04/21 18:01:07;;;;;;;42.25;26.12;;;;;;;9.18;63.13;98624.98;4087710;85;21926;-89
2022/04/21 18:07:08;;;;;;;44.20;29.23;;;;;;;9.11;63.40;98636.41;4093740;85;21163;-88
2022/04/21 18:13:09;;;;;;;57.25;34.98;;;;;;;9.07;63.80;98644.56;4102624;85;21098;-88
2022/04/21 18:19:11;;;;;;;46.10;26.55;;;;;;;9.02;63.83;98639.42;4099395;85;21151;-90
2022/04/21 18:25:13;;;;;;;47.60;28.60;;;;;;;8.98;64.33;98641.91;4098085;85;21105;-88
2022/04/21 18:31:16;;;;;;;46.13;26.70;;;;;;;8.92;64.43;98643.41;4095581;85;21008;-90
2022/04/21 18:37:17;;;;;;;50.67;28.30;;;;;;;8.87;64.83;98649.98;4101929;85;21075;-91
2022/04/21 18:43:19;;;;;;;46.77;28.42;;;;;;;8.84;65.18;98648.56;4091681;85;21020;-87
2022/04/21 18:49:22;;;;;;;45.33;28.35;;;;;;;8.78;65.11;98650.06;4028832;86;21087;-88
2022/04/21 18:55:23;;;;;;;47.50;30.80;;;;;;;8.77;66.04;98656.69;4008830;86;21141;-90
2022/04/21 19:01:25;;;;;;;43.15;27.25;;;;;;;8.76;66.33;98652.36;4031166;86;22112;-88
2022/04/21 19:07:26;;;;;;;43.73;28.98;;;;;;;8.70;66.64;98647.03;4086046;85;22175;-89
2022/04/21 19:13:27;;;;;;;49.15;29.15;;;;;;;8.64;66.92;98649.88;4065081;85;21083;-91
2022/04/21 19:19:30;;;;;;;56.60;33.10;;;;;;;8.59;67.53;98640.08;4070695;86;21031;-88
2022/04/21 19:25:32;;;;;;;57.93;35.13;;;;;;;8.55;67.76;98641.95;4021215;86;21867;-91
2022/04/21 19:31:33;;;;;;;58.08;35.03;;;;;;;8.55;67.98;98645.28;4027059;86;21035;-88
2022/04/21 19:37:35;;;;;;;50.48;31.02;;;;;;;8.47;68.19;98636.19;4016923;86;21519;-90
2022/04/21 19:43:37;;;;;;;53.20;33.50;;;;;;;8.41;68.64;98627.36;4023441;86;21099;-87
2022/04/21 19:49:41;;;;;;;57.60;33.40;;;;;;;8.27;69.00;98625.20;4025979;86;21086;-89
2022/04/21 19:55:42;;;;;;;58.20;34.67;;;;;;;8.25;69.68;98630.26;4021808;86;21163;-90
2022/04/21 20:01:44;;;;;;;57.48;34.67;;;;;;;8.26;69.74;98626.94;4080575;85;21067;-89
2022/04/21 20:14:07;;;;;;;61.83;36.95;;;;;;;8.14;70.59;98614.29;4080882;85;22466;-89
2022/04/21 20:26:38;;;;;;;64.07;38.60;;;;;;;8.02;70.56;98595.40;4084193;85;21906;-88
2022/04/21 20:32:42;;;;;;;77.55;48.33;;;;;;;7.98;70.82;98591.85;4029582;86;21027;-88
2022/04/21 20:38:44;;;;;;;71.12;41.83;;;;;;;7.95;71.34;98589.27;4017680;86;21069;-88
2022/04/21 20:44:46;;;;;;;69.65;41.48;;;;;;;7.90;70.93;98595.62;4018757;86;21194;-89
2022/04/21 20:50:49;;;;;;;80.62;44.30;;;;;;;7.86;71.57;98596.16;4013168;86;21587;-89
2022/04/21 20:56:54;;;;;;;93.67;48.75;;;;;;;7.86;72.17;98595.55;4086366;85;21546;-88
2022/04/21 21:02:55;;;;;;;90.83;48.95;;;;;;;7.81;72.52;98604.04;4080579;85;21061;-87
2022/04/21 21:09:01;;;;;;;83.72;45.85;;;;;;;7.89;72.78;98608.45;4071282;85;21164;-92
2022/04/21 21:15:04;;;;;;;70.78;42.58;;;;;;;7.91;73.01;98604.79;4085739;85;21103;-88
2022/04/21 21:21:06;;;;;;;72.62;44.05;;;;;;;7.90;73.17;98599.70;4087062;85;22316;-91
2022/04/21 21:27:09;;;;;;;62.13;37.85;;;;;;;7.82;73.34;98595.30;3998750;87;21078;-88
2022/04/21 21:33:15;;;;;;;64.17;39.63;;;;;;;7.83;73.65;98602.31;4012509;86;21103;-87
2022/04/21 21:39:16;;;;;;;68.92;42.35;;;;;;;7.86;73.93;98598.28;4012486;86;21116;-87
2022/04/21 21:45:18;;;;;;;74.25;44.35;;;;;;;7.82;74.06;98601.55;4002611;86;21064;-89
2022/04/21 21:57:39;;;;;;;73.15;43.23;;;;;;;7.70;74.80;98596.87;4000233;86;22096;-89
2022/04/21 22:03:42;;;;;;;69.72;43.02;;;;;;;7.68;74.97;98591.78;4010265;86;21154;-87
2022/04/21 22:09:45;;;;;;;74.80;43.52;;;;;;;7.67;75.06;98594.28;4006081;86;21149;-88
2022/04/21 22:15:46;;;;;;;79.80;45.80;;;;;;;7.63;75.14;98589.92;4035348;87;21054;-86
2022/04/21 22:21:49;;;;;;;87.95;48.00;;;;;;;7.58;75.45;98582.85;4088904;85;21083;-91
2022/04/21 22:27:50;;;;;;;90.80;48.48;;;;;;;7.52;75.36;98577.51;4050332;86;21091;-87
2022/04/21 22:33:52;;;;;;;106.17;56.13;;;;;;;7.47;75.17;98573.72;4034483;86;21729;-87
2022/04/21 22:39:53;;;;;;;97.20;50.58;;;;;;;7.39;75.84;98571.27;4039498;86;21084;-87
2022/04/21 22:45:55;;;;;;;92.65;54.08;;;;;;;7.48;76.36;98577.23;4031462;87;21057;-91
2022/04/21 22:51:58;;;;;;;99.72;54.73;;;;;;;7.51;76.31;98567.77;4036772;86;21125;-90
2022/04/21 22:57:59;;;;;;;86.10;49.08;;;;;;;7.49;76.60;98570.06;4041375;86;21558;-87
2022/04/21 23:04:01;;;;;;;81.22;46.85;;;;;;;7.46;76.96;98559.11;4035409;86;22214;-88
2022/04/21 23:16:24;;;;;;;87.42;49.53;;;;;;;7.27;77.21;98550.44;3935884;88;21194;-89
2022/04/21 23:22:26;;;;;;;71.92;43.85;;;;;;;7.28;77.32;98546.55;3939287;88;21083;-89
2022/04/21 23:28:27;;;;;;;82.70;46.88;;;;;;;7.24;77.41;98547.65;3997066;87;21090;-89
2022/04/21 23:34:29;;;;;;;84.10;48.92;;;;;;;7.21;77.67;98548.38;4023572;86;21616;-88
2022/04/21 23:40:30;;;;;;;81.42;45.98;;;;;;;7.16;77.76;98544.03;4018013;86;21098;-87
2022/04/21 23:46:31;;;;;;;79.80;45.12;;;;;;;7.15;78.32;98540.30;4020358;86;21583;-91
2022/04/21 23:52:34;;;;;;;83.97;47.35;;;;;;;7.18;78.44;98534.13;4024739;86;21118;-88
2022/04/21 23:58:36;;;;;;;80.75;44.40;;;;;;;7.15;78.60;98516.61;4023692;86;21075;-87
